Atwood, Colorado
Current Conditions -  °F | °C
As of 4:50 AM on Wednesday 28 Jan 2015 (Local Time) from KSTK Reporting Station
Clear Clear  
Wind Chill: 34°   Ceiling: Unl
Heat Index: 34°   Visibility: 10mi
Dew Point: 32°   Wind: 0mph
Humidity: 93%   Direction: NA
Pressure: 29.95"   Gusts: NA
Location:  40.55°N, 103.27°W
Report Text: KSTK 281150Z AUTO 00000KT 10SM CLR 01/00 A2995 RMK AO2
Loading
Personal Weather Stations






























Interactive Weather Map New forecast layout! Learn more

10-Day Weather Forecast

Advertisements
Track Severe Weather on mobile